sensor_id;sensor_type;location;lat;lon;timestamp;P1;durP1;ratioP1;P2;durP2;ratioP2
9208;SDS011;4639;48.862;9.188;2022-08-21T00:01:01;3.75;;;2.83;;
9208;SDS011;4639;48.862;9.188;2022-08-21T00:03:30;4.15;;;2.70;;
9208;SDS011;4639;48.862;9.188;2022-08-21T00:05:56;6.78;;;2.40;;
9208;SDS011;4639;48.862;9.188;2022-08-21T00:08:22;5.30;;;2.53;;
9208;SDS011;4639;48.862;9.188;2022-08-21T00:10:48;3.53;;;2.20;;
9208;SDS011;4639;48.862;9.188;2022-08-21T00:13:15;3.40;;;2.40;;
9208;SDS011;4639;48.862;9.188;2022-08-21T00:15:45;4.72;;;2.20;;
9208;SDS011;4639;48.862;9.188;2022-08-21T00:18:11;4.30;;;2.10;;
9208;SDS011;4639;48.862;9.188;2022-08-21T00:20:37;3.60;;;2.20;;
9208;SDS011;4639;48.862;9.188;2022-08-21T00:23:04;4.85;;;2.47;;
9208;SDS011;4639;48.862;9.188;2022-08-21T00:25:30;4.68;;;2.53;;
9208;SDS011;4639;48.862;9.188;2022-08-21T00:27:56;4.95;;;2.40;;
9208;SDS011;4639;48.862;9.188;2022-08-21T00:30:23;5.70;;;2.40;;
9208;SDS011;4639;48.862;9.188;2022-08-21T00:32:51;5.38;;;2.63;;
9208;SDS011;4639;48.862;9.188;2022-08-21T00:35:19;5.25;;;2.50;;
9208;SDS011;4639;48.862;9.188;2022-08-21T00:37:48;4.60;;;2.70;;
9208;SDS011;4639;48.862;9.188;2022-08-21T00:40:15;4.60;;;2.30;;
9208;SDS011;4639;48.862;9.188;2022-08-21T00:42:43;6.85;;;2.53;;
9208;SDS011;4639;48.862;9.188;2022-08-21T00:45:10;3.78;;;2.50;;
9208;SDS011;4639;48.862;9.188;2022-08-21T00:47:36;3.75;;;2.42;;
9208;SDS011;4639;48.862;9.188;2022-08-21T00:50:03;5.07;;;2.40;;
9208;SDS011;4639;48.862;9.188;2022-08-21T00:52:31;4.35;;;2.63;;
9208;SDS011;4639;48.862;9.188;2022-08-21T00:54:59;8.30;;;2.88;;
9208;SDS011;4639;48.862;9.188;2022-08-21T00:57:36;4.38;;;2.72;;
9208;SDS011;4639;48.862;9.188;2022-08-21T01:00:08;5.80;;;2.75;;
9208;SDS011;4639;48.862;9.188;2022-08-21T01:02:36;5.70;;;2.53;;
9208;SDS011;4639;48.862;9.188;2022-08-21T01:05:02;5.63;;;2.88;;
9208;SDS011;4639;48.862;9.188;2022-08-21T01:07:28;4.32;;;2.55;;
9208;SDS011;4639;48.862;9.188;2022-08-21T01:09:54;4.70;;;2.72;;
9208;SDS011;4639;48.862;9.188;2022-08-21T01:12:19;5.32;;;2.50;;
9208;SDS011;4639;48.862;9.188;2022-08-21T01:14:45;3.42;;;2.40;;
9208;SDS011;4639;48.862;9.188;2022-08-21T01:17:11;5.03;;;2.70;;
9208;SDS011;4639;48.862;9.188;2022-08-21T01:19:38;3.90;;;2.40;;
9208;SDS011;4639;48.862;9.188;2022-08-21T01:22:04;5.25;;;2.60;;
9208;SDS011;4639;48.862;9.188;2022-08-21T01:24:30;4.88;;;2.33;;
9208;SDS011;4639;48.862;9.188;2022-08-21T01:26:57;4.50;;;2.70;;
9208;SDS011;4639;48.862;9.188;2022-08-21T01:29:46;7.00;;;2.60;;
9208;SDS011;4639;48.862;9.188;2022-08-21T01:32:18;4.07;;;2.20;;
9208;SDS011;4639;48.862;9.188;2022-08-21T01:34:46;6.05;;;2.50;;
9208;SDS011;4639;48.862;9.188;2022-08-21T01:37:13;6.22;;;2.30;;
9208;SDS011;4639;48.862;9.188;2022-08-21T01:39:41;4.38;;;2.58;;
9208;SDS011;4639;48.862;9.188;2022-08-21T01:42:07;4.72;;;2.42;;
9208;SDS011;4639;48.862;9.188;2022-08-21T01:44:33;7.15;;;2.60;;
9208;SDS011;4639;48.862;9.188;2022-08-21T01:47:00;3.47;;;2.38;;
9208;SDS011;4639;48.862;9.188;2022-08-21T01:49:27;4.70;;;2.33;;
9208;SDS011;4639;48.862;9.188;2022-08-21T01:51:53;4.88;;;2.47;;
9208;SDS011;4639;48.862;9.188;2022-08-21T01:54:18;5.63;;;2.72;;
9208;SDS011;4639;48.862;9.188;2022-08-21T01:56:45;4.43;;;2.67;;
9208;SDS011;4639;48.862;9.188;2022-08-21T01:59:15;3.65;;;2.55;;
9208;SDS011;4639;48.862;9.188;2022-08-21T02:01:41;5.75;;;3.28;;
9208;SDS011;4639;48.862;9.188;2022-08-21T02:04:07;8.63;;;3.80;;
9208;SDS011;4639;48.862;9.188;2022-08-21T02:06:34;7.22;;;3.50;;
9208;SDS011;4639;48.862;9.188;2022-08-21T02:09:01;5.25;;;3.85;;
9208;SDS011;4639;48.862;9.188;2022-08-21T02:11:28;8.52;;;3.90;;
9208;SDS011;4639;48.862;9.188;2022-08-21T02:13:53;6.63;;;3.67;;
9208;SDS011;4639;48.862;9.188;2022-08-21T02:16:19;6.47;;;4.20;;
9208;SDS011;4639;48.862;9.188;2022-08-21T02:18:45;6.07;;;4.15;;
9208;SDS011;4639;48.862;9.188;2022-08-21T02:21:11;5.68;;;3.63;;
9208;SDS011;4639;48.862;9.188;2022-08-21T02:23:37;7.03;;;3.45;;
9208;SDS011;4639;48.862;9.188;2022-08-21T02:26:04;4.00;;;3.47;;
9208;SDS011;4639;48.862;9.188;2022-08-21T02:28:32;5.05;;;3.53;;
9208;SDS011;4639;48.862;9.188;2022-08-21T02:30:58;8.02;;;3.90;;
9208;SDS011;4639;48.862;9.188;2022-08-21T02:33:24;5.05;;;3.78;;
9208;SDS011;4639;48.862;9.188;2022-08-21T02:35:51;6.40;;;3.63;;
9208;SDS011;4639;48.862;9.188;2022-08-21T02:38:19;5.70;;;3.33;;
9208;SDS011;4639;48.862;9.188;2022-08-21T02:40:47;5.80;;;2.85;;
9208;SDS011;4639;48.862;9.188;2022-08-21T02:43:14;5.70;;;3.15;;
9208;SDS011;4639;48.862;9.188;2022-08-21T02:45:41;5.32;;;3.10;;
9208;SDS011;4639;48.862;9.188;2022-08-21T02:48:08;4.88;;;3.20;;
9208;SDS011;4639;48.862;9.188;2022-08-21T02:50:37;4.38;;;2.90;;
9208;SDS011;4639;48.862;9.188;2022-08-21T02:53:06;5.45;;;3.08;;
9208;SDS011;4639;48.862;9.188;2022-08-21T02:55:34;6.35;;;3.40;;
9208;SDS011;4639;48.862;9.188;2022-08-21T02:58:01;9.40;;;3.10;;
9208;SDS011;4639;48.862;9.188;2022-08-21T03:00:28;4.95;;;3.22;;
9208;SDS011;4639;48.862;9.188;2022-08-21T03:02:55;7.75;;;3.45;;
9208;SDS011;4639;48.862;9.188;2022-08-21T03:05:22;4.65;;;3.25;;
9208;SDS011;4639;48.862;9.188;2022-08-21T03:07:49;6.20;;;3.17;;
9208;SDS011;4639;48.862;9.188;2022-08-21T03:10:15;3.47;;;2.67;;
9208;SDS011;4639;48.862;9.188;2022-08-21T03:12:41;4.22;;;3.45;;
9208;SDS011;4639;48.862;9.188;2022-08-21T03:15:08;4.10;;;3.05;;
9208;SDS011;4639;48.862;9.188;2022-08-21T03:17:35;5.30;;;3.38;;
9208;SDS011;4639;48.862;9.188;2022-08-21T03:20:02;3.95;;;2.90;;
9208;SDS011;4639;48.862;9.188;2022-08-21T03:22:29;7.65;;;3.22;;
9208;SDS011;4639;48.862;9.188;2022-08-21T03:24:54;7.78;;;3.45;;
9208;SDS011;4639;48.862;9.188;2022-08-21T03:27:22;6.60;;;3.17;;
9208;SDS011;4639;48.862;9.188;2022-08-21T03:29:49;3.88;;;3.40;;
9208;SDS011;4639;48.862;9.188;2022-08-21T03:32:14;6.15;;;3.50;;
9208;SDS011;4639;48.862;9.188;2022-08-21T03:34:40;3.90;;;2.97;;
9208;SDS011;4639;48.862;9.188;2022-08-21T03:37:07;4.55;;;3.42;;
9208;SDS011;4639;48.862;9.188;2022-08-21T03:39:33;6.30;;;3.35;;
9208;SDS011;4639;48.862;9.188;2022-08-21T03:41:59;4.97;;;2.90;;
9208;SDS011;4639;48.862;9.188;2022-08-21T03:44:25;5.50;;;3.33;;
9208;SDS011;4639;48.862;9.188;2022-08-21T03:46:53;7.68;;;3.42;;
9208;SDS011;4639;48.862;9.188;2022-08-21T03:49:19;4.93;;;3.30;;
9208;SDS011;4639;48.862;9.188;2022-08-21T03:51:44;6.63;;;3.65;;
9208;SDS011;4639;48.862;9.188;2022-08-21T03:54:10;3.47;;;3.00;;
9208;SDS011;4639;48.862;9.188;2022-08-21T03:56:35;8.70;;;3.15;;
9208;SDS011;4639;48.862;9.188;2022-08-21T03:59:01;4.18;;;3.60;;
9208;SDS011;4639;48.862;9.188;2022-08-21T04:01:28;5.15;;;2.97;;
9208;SDS011;4639;48.862;9.188;2022-08-21T04:03:53;4.93;;;3.75;;
9208;SDS011;4639;48.862;9.188;2022-08-21T04:06:19;12.05;;;3.25;;
9208;SDS011;4639;48.862;9.188;2022-08-21T04:08:45;5.40;;;3.03;;
9208;SDS011;4639;48.862;9.188;2022-08-21T04:11:10;4.97;;;3.35;;
9208;SDS011;4639;48.862;9.188;2022-08-21T04:13:37;9.30;;;3.53;;
9208;SDS011;4639;48.862;9.188;2022-08-21T04:16:03;7.35;;;3.78;;
9208;SDS011;4639;48.862;9.188;2022-08-21T04:18:29;11.20;;;3.60;;
9208;SDS011;4639;48.862;9.188;2022-08-21T04:20:56;4.70;;;3.30;;
9208;SDS011;4639;48.862;9.188;2022-08-21T04:23:23;4.40;;;3.53;;
9208;SDS011;4639;48.862;9.188;2022-08-21T04:25:50;5.22;;;3.17;;
9208;SDS011;4639;48.862;9.188;2022-08-21T04:28:16;10.77;;;3.70;;
9208;SDS011;4639;48.862;9.188;2022-08-21T04:30:42;5.03;;;3.50;;
9208;SDS011;4639;48.862;9.188;2022-08-21T04:33:08;4.80;;;3.72;;
9208;SDS011;4639;48.862;9.188;2022-08-21T04:35:34;7.55;;;3.30;;
9208;SDS011;4639;48.862;9.188;2022-08-21T04:38:00;9.25;;;3.53;;
9208;SDS011;4639;48.862;9.188;2022-08-21T04:40:26;5.90;;;3.53;;
9208;SDS011;4639;48.862;9.188;2022-08-21T04:42:54;4.90;;;3.75;;
9208;SDS011;4639;48.862;9.188;2022-08-21T04:45:24;4.00;;;3.45;;
9208;SDS011;4639;48.862;9.188;2022-08-21T04:47:57;5.40;;;3.47;;
9208;SDS011;4639;48.862;9.188;2022-08-21T04:50:33;7.05;;;3.45;;
9208;SDS011;4639;48.862;9.188;2022-08-21T04:53:14;6.63;;;3.40;;
9208;SDS011;4639;48.862;9.188;2022-08-21T04:55:44;4.00;;;3.50;;
9208;SDS011;4639;48.862;9.188;2022-08-21T04:58:12;3.33;;;3.03;;
9208;SDS011;4639;48.862;9.188;2022-08-21T05:00:40;5.47;;;3.10;;
9208;SDS011;4639;48.862;9.188;2022-08-21T05:03:06;5.43;;;3.75;;
9208;SDS011;4639;48.862;9.188;2022-08-21T05:05:34;6.65;;;3.65;;
9208;SDS011;4639;48.862;9.188;2022-08-21T05:08:01;6.78;;;3.70;;
9208;SDS011;4639;48.862;9.188;2022-08-21T05:10:28;8.15;;;4.25;;
9208;SDS011;4639;48.862;9.188;2022-08-21T05:12:56;6.07;;;3.50;;
9208;SDS011;4639;48.862;9.188;2022-08-21T05:15:22;6.35;;;3.92;;
9208;SDS011;4639;48.862;9.188;2022-08-21T05:17:48;5.35;;;3.53;;
9208;SDS011;4639;48.862;9.188;2022-08-21T05:20:15;5.07;;;3.45;;
9208;SDS011;4639;48.862;9.188;2022-08-21T05:22:41;6.13;;;3.30;;
9208;SDS011;4639;48.862;9.188;2022-08-21T05:25:08;3.90;;;3.42;;
9208;SDS011;4639;48.862;9.188;2022-08-21T05:27:34;4.68;;;3.20;;
9208;SDS011;4639;48.862;9.188;2022-08-21T05:30:00;4.00;;;3.17;;
9208;SDS011;4639;48.862;9.188;2022-08-21T05:32:27;4.35;;;3.03;;
9208;SDS011;4639;48.862;9.188;2022-08-21T05:34:53;6.47;;;3.33;;
9208;SDS011;4639;48.862;9.188;2022-08-21T05:37:19;5.15;;;3.25;;
9208;SDS011;4639;48.862;9.188;2022-08-21T05:39:45;6.43;;;3.28;;
9208;SDS011;4639;48.862;9.188;2022-08-21T05:42:11;7.60;;;3.75;;
9208;SDS011;4639;48.862;9.188;2022-08-21T05:44:37;5.38;;;3.58;;
9208;SDS011;4639;48.862;9.188;2022-08-21T05:47:03;5.95;;;3.90;;
9208;SDS011;4639;48.862;9.188;2022-08-21T05:49:30;4.30;;;3.40;;
9208;SDS011;4639;48.862;9.188;2022-08-21T05:51:56;4.65;;;3.33;;
9208;SDS011;4639;48.862;9.188;2022-08-21T05:54:21;5.95;;;3.40;;
9208;SDS011;4639;48.862;9.188;2022-08-21T05:56:47;5.88;;;3.58;;
9208;SDS011;4639;48.862;9.188;2022-08-21T05:59:13;4.55;;;3.50;;
9208;SDS011;4639;48.862;9.188;2022-08-21T06:01:38;4.75;;;3.65;;
9208;SDS011;4639;48.862;9.188;2022-08-21T06:04:05;6.38;;;3.90;;
9208;SDS011;4639;48.862;9.188;2022-08-21T06:06:31;6.05;;;3.55;;
9208;SDS011;4639;48.862;9.188;2022-08-21T06:08:57;5.65;;;3.55;;
9208;SDS011;4639;48.862;9.188;2022-08-21T06:11:23;4.43;;;3.58;;
9208;SDS011;4639;48.862;9.188;2022-08-21T06:13:48;8.40;;;3.75;;
9208;SDS011;4639;48.862;9.188;2022-08-21T06:16:15;4.78;;;3.40;;
9208;SDS011;4639;48.862;9.188;2022-08-21T06:18:41;7.47;;;3.40;;
9208;SDS011;4639;48.862;9.188;2022-08-21T06:21:08;6.30;;;3.60;;
9208;SDS011;4639;48.862;9.188;2022-08-21T06:23:34;5.47;;;3.65;;
9208;SDS011;4639;48.862;9.188;2022-08-21T06:26:03;6.22;;;3.35;;
9208;SDS011;4639;48.862;9.188;2022-08-21T06:28:30;6.97;;;3.67;;
9208;SDS011;4639;48.862;9.188;2022-08-21T06:30:57;6.63;;;3.50;;
9208;SDS011;4639;48.862;9.188;2022-08-21T06:33:22;7.85;;;3.65;;
9208;SDS011;4639;48.862;9.188;2022-08-21T06:35:48;6.00;;;3.55;;
9208;SDS011;4639;48.862;9.188;2022-08-21T06:38:14;7.20;;;3.45;;
9208;SDS011;4639;48.862;9.188;2022-08-21T06:40:40;5.95;;;3.42;;
9208;SDS011;4639;48.862;9.188;2022-08-21T06:43:08;4.50;;;3.35;;
9208;SDS011;4639;48.862;9.188;2022-08-21T06:45:35;5.53;;;3.28;;
9208;SDS011;4639;48.862;9.188;2022-08-21T06:48:01;3.97;;;3.38;;
9208;SDS011;4639;48.862;9.188;2022-08-21T06:50:27;6.85;;;3.30;;
9208;SDS011;4639;48.862;9.188;2022-08-21T06:53:00;5.35;;;3.20;;
9208;SDS011;4639;48.862;9.188;2022-08-21T06:55:27;5.45;;;3.33;;
9208;SDS011;4639;48.862;9.188;2022-08-21T06:57:52;5.15;;;3.17;;
9208;SDS011;4639;48.862;9.188;2022-08-21T07:00:18;5.93;;;3.28;;
9208;SDS011;4639;48.862;9.188;2022-08-21T07:02:44;6.63;;;3.03;;
9208;SDS011;4639;48.862;9.188;2022-08-21T07:05:10;6.57;;;3.40;;
9208;SDS011;4639;48.862;9.188;2022-08-21T07:07:35;7.03;;;3.30;;
9208;SDS011;4639;48.862;9.188;2022-08-21T07:10:01;5.97;;;3.72;;
9208;SDS011;4639;48.862;9.188;2022-08-21T07:12:27;8.38;;;3.28;;
9208;SDS011;4639;48.862;9.188;2022-08-21T07:14:52;7.13;;;2.92;;
9208;SDS011;4639;48.862;9.188;2022-08-21T07:17:18;7.13;;;3.33;;
9208;SDS011;4639;48.862;9.188;2022-08-21T07:19:43;5.88;;;3.50;;
9208;SDS011;4639;48.862;9.188;2022-08-21T07:22:09;8.75;;;3.22;;
9208;SDS011;4639;48.862;9.188;2022-08-21T07:24:35;7.03;;;3.47;;
9208;SDS011;4639;48.862;9.188;2022-08-21T07:27:00;5.93;;;3.25;;
9208;SDS011;4639;48.862;9.188;2022-08-21T07:29:26;5.45;;;3.35;;
9208;SDS011;4639;48.862;9.188;2022-08-21T07:31:51;9.35;;;3.70;;
9208;SDS011;4639;48.862;9.188;2022-08-21T07:34:17;7.78;;;3.70;;
9208;SDS011;4639;48.862;9.188;2022-08-21T07:36:42;6.15;;;3.72;;
9208;SDS011;4639;48.862;9.188;2022-08-21T07:39:08;7.63;;;3.72;;
9208;SDS011;4639;48.862;9.188;2022-08-21T07:41:34;9.45;;;4.57;;
9208;SDS011;4639;48.862;9.188;2022-08-21T07:44:00;8.50;;;4.15;;
9208;SDS011;4639;48.862;9.188;2022-08-21T07:46:26;9.55;;;3.88;;
9208;SDS011;4639;48.862;9.188;2022-08-21T07:48:52;9.02;;;3.90;;
9208;SDS011;4639;48.862;9.188;2022-08-21T07:51:19;9.82;;;4.00;;
9208;SDS011;4639;48.862;9.188;2022-08-21T07:53:49;8.40;;;3.50;;
9208;SDS011;4639;48.862;9.188;2022-08-21T07:56:18;7.40;;;3.45;;
9208;SDS011;4639;48.862;9.188;2022-08-21T07:58:44;8.05;;;4.00;;
9208;SDS011;4639;48.862;9.188;2022-08-21T08:01:10;7.00;;;3.97;;
9208;SDS011;4639;48.862;9.188;2022-08-21T08:03:36;10.68;;;3.95;;
9208;SDS011;4639;48.862;9.188;2022-08-21T08:06:02;8.02;;;3.60;;
9208;SDS011;4639;48.862;9.188;2022-08-21T08:08:29;6.43;;;4.10;;
9208;SDS011;4639;48.862;9.188;2022-08-21T08:10:56;8.75;;;4.25;;
9208;SDS011;4639;48.862;9.188;2022-08-21T08:13:22;9.63;;;4.05;;
9208;SDS011;4639;48.862;9.188;2022-08-21T08:15:48;7.82;;;4.15;;
9208;SDS011;4639;48.862;9.188;2022-08-21T08:18:14;8.88;;;4.15;;
9208;SDS011;4639;48.862;9.188;2022-08-21T08:20:40;10.43;;;4.70;;
9208;SDS011;4639;48.862;9.188;2022-08-21T08:23:06;6.40;;;4.15;;
9208;SDS011;4639;48.862;9.188;2022-08-21T08:25:34;7.55;;;4.03;;
9208;SDS011;4639;48.862;9.188;2022-08-21T08:28:00;6.80;;;4.07;;
9208;SDS011;4639;48.862;9.188;2022-08-21T08:30:25;6.63;;;3.97;;
9208;SDS011;4639;48.862;9.188;2022-08-21T08:32:51;8.55;;;4.22;;
9208;SDS011;4639;48.862;9.188;2022-08-21T08:35:16;7.88;;;4.15;;
9208;SDS011;4639;48.862;9.188;2022-08-21T08:37:43;7.18;;;3.78;;
9208;SDS011;4639;48.862;9.188;2022-08-21T08:40:33;9.25;;;4.32;;
9208;SDS011;4639;48.862;9.188;2022-08-21T08:43:04;7.05;;;4.00;;
9208;SDS011;4639;48.862;9.188;2022-08-21T08:45:32;5.93;;;4.10;;
9208;SDS011;4639;48.862;9.188;2022-08-21T08:48:03;6.40;;;4.32;;
9208;SDS011;4639;48.862;9.188;2022-08-21T08:53:08;7.95;;;3.90;;
9208;SDS011;4639;48.862;9.188;2022-08-21T08:55:40;6.40;;;3.67;;
9208;SDS011;4639;48.862;9.188;2022-08-21T08:58:09;7.22;;;4.00;;
9208;SDS011;4639;48.862;9.188;2022-08-21T09:00:58;9.27;;;3.90;;
9208;SDS011;4639;48.862;9.188;2022-08-21T09:03:26;10.10;;;3.78;;
9208;SDS011;4639;48.862;9.188;2022-08-21T09:06:01;5.68;;;3.55;;
9208;SDS011;4639;48.862;9.188;2022-08-21T09:14:26;7.13;;;3.67;;
9208;SDS011;4639;48.862;9.188;2022-08-21T09:25:40;5.03;;;3.55;;
9208;SDS011;4639;48.862;9.188;2022-08-21T09:28:10;8.43;;;4.43;;
9208;SDS011;4639;48.862;9.188;2022-08-21T09:30:39;6.28;;;3.50;;
9208;SDS011;4639;48.862;9.188;2022-08-21T09:33:06;8.50;;;4.35;;
9208;SDS011;4639;48.862;9.188;2022-08-21T09:35:32;6.28;;;4.05;;
9208;SDS011;4639;48.862;9.188;2022-08-21T09:38:01;8.35;;;3.63;;
9208;SDS011;4639;48.862;9.188;2022-08-21T09:43:07;7.13;;;4.00;;
9208;SDS011;4639;48.862;9.188;2022-08-21T09:45:40;5.40;;;3.40;;
9208;SDS011;4639;48.862;9.188;2022-08-21T09:48:08;6.15;;;3.20;;
9208;SDS011;4639;48.862;9.188;2022-08-21T09:50:35;6.88;;;3.55;;
9208;SDS011;4639;48.862;9.188;2022-08-21T09:53:01;8.95;;;3.08;;
9208;SDS011;4639;48.862;9.188;2022-08-21T09:58:18;7.63;;;3.67;;
9208;SDS011;4639;48.862;9.188;2022-08-21T10:00:45;6.63;;;3.40;;
9208;SDS011;4639;48.862;9.188;2022-08-21T10:03:12;7.70;;;3.35;;
9208;SDS011;4639;48.862;9.188;2022-08-21T10:05:49;5.40;;;3.05;;
9208;SDS011;4639;48.862;9.188;2022-08-21T10:08:22;5.72;;;2.90;;
9208;SDS011;4639;48.862;9.188;2022-08-21T10:10:56;6.43;;;3.28;;
9208;SDS011;4639;48.862;9.188;2022-08-21T10:13:37;7.20;;;3.33;;
9208;SDS011;4639;48.862;9.188;2022-08-21T10:16:23;4.82;;;3.08;;
9208;SDS011;4639;48.862;9.188;2022-08-21T10:19:11;5.40;;;3.00;;
9208;SDS011;4639;48.862;9.188;2022-08-21T10:27:09;11.10;;;3.38;;
9208;SDS011;4639;48.862;9.188;2022-08-21T10:29:59;6.28;;;3.13;;
9208;SDS011;4639;48.862;9.188;2022-08-21T10:38:21;9.93;;;3.60;;
9208;SDS011;4639;48.862;9.188;2022-08-21T10:44:25;5.65;;;3.13;;
9208;SDS011;4639;48.862;9.188;2022-08-21T10:47:16;6.15;;;3.22;;
9208;SDS011;4639;48.862;9.188;2022-08-21T10:50:05;10.02;;;3.45;;
9208;SDS011;4639;48.862;9.188;2022-08-21T10:55:30;6.50;;;3.30;;
9208;SDS011;4639;48.862;9.188;2022-08-21T10:58:08;7.07;;;3.40;;
9208;SDS011;4639;48.862;9.188;2022-08-21T11:03:13;5.63;;;3.47;;
9208;SDS011;4639;48.862;9.188;2022-08-21T11:05:49;7.47;;;3.25;;
9208;SDS011;4639;48.862;9.188;2022-08-21T11:10:47;4.80;;;2.95;;
9208;SDS011;4639;48.862;9.188;2022-08-21T11:13:27;5.05;;;3.00;;
9208;SDS011;4639;48.862;9.188;2022-08-21T11:16:10;6.38;;;3.35;;
9208;SDS011;4639;48.862;9.188;2022-08-21T11:25:11;5.95;;;3.20;;
9208;SDS011;4639;48.862;9.188;2022-08-21T11:27:42;4.63;;;2.80;;
9208;SDS011;4639;48.862;9.188;2022-08-21T11:30:27;5.75;;;3.15;;
9208;SDS011;4639;48.862;9.188;2022-08-21T11:33:30;6.50;;;3.20;;
9208;SDS011;4639;48.862;9.188;2022-08-21T11:36:01;7.07;;;3.03;;
9208;SDS011;4639;48.862;9.188;2022-08-21T11:38:39;5.15;;;3.08;;
9208;SDS011;4639;48.862;9.188;2022-08-21T11:41:22;5.18;;;3.17;;
9208;SDS011;4639;48.862;9.188;2022-08-21T11:43:53;4.03;;;2.53;;
9208;SDS011;4639;48.862;9.188;2022-08-21T11:47:15;6.40;;;2.90;;
9208;SDS011;4639;48.862;9.188;2022-08-21T11:52:42;5.97;;;3.00;;
9208;SDS011;4639;48.862;9.188;2022-08-21T11:55:15;5.88;;;2.83;;
9208;SDS011;4639;48.862;9.188;2022-08-21T11:58:25;6.38;;;2.85;;
9208;SDS011;4639;48.862;9.188;2022-08-21T12:00:40;5.18;;;2.65;;
9208;SDS011;4639;48.862;9.188;2022-08-21T12:03:22;5.10;;;2.83;;
9208;SDS011;4639;48.862;9.188;2022-08-21T12:05:56;10.40;;;2.75;;
9208;SDS011;4639;48.862;9.188;2022-08-21T12:08:39;5.32;;;2.80;;
9208;SDS011;4639;48.862;9.188;2022-08-21T12:11:08;6.93;;;2.90;;
9208;SDS011;4639;48.862;9.188;2022-08-21T12:13:52;5.05;;;2.78;;
9208;SDS011;4639;48.862;9.188;2022-08-21T12:16:28;8.15;;;2.88;;
9208;SDS011;4639;48.862;9.188;2022-08-21T12:19:05;7.22;;;3.08;;
9208;SDS011;4639;48.862;9.188;2022-08-21T12:21:49;8.65;;;3.00;;
9208;SDS011;4639;48.862;9.188;2022-08-21T12:26:56;9.43;;;3.00;;
9208;SDS011;4639;48.862;9.188;2022-08-21T12:29:51;6.50;;;2.92;;
9208;SDS011;4639;48.862;9.188;2022-08-21T12:32:23;6.70;;;2.95;;
9208;SDS011;4639;48.862;9.188;2022-08-21T12:35:10;7.18;;;3.45;;
9208;SDS011;4639;48.862;9.188;2022-08-21T12:37:47;5.72;;;2.88;;
9208;SDS011;4639;48.862;9.188;2022-08-21T12:42:49;4.65;;;2.80;;
9208;SDS011;4639;48.862;9.188;2022-08-21T12:45:19;3.88;;;2.55;;
9208;SDS011;4639;48.862;9.188;2022-08-21T12:47:52;5.00;;;2.60;;
9208;SDS011;4639;48.862;9.188;2022-08-21T12:50:31;6.78;;;2.50;;
9208;SDS011;4639;48.862;9.188;2022-08-21T12:53:09;4.57;;;2.35;;
9208;SDS011;4639;48.862;9.188;2022-08-21T12:55:41;5.63;;;2.58;;
9208;SDS011;4639;48.862;9.188;2022-08-21T12:58:16;4.95;;;2.65;;
9208;SDS011;4639;48.862;9.188;2022-08-21T13:00:47;5.38;;;2.85;;
9208;SDS011;4639;48.862;9.188;2022-08-21T13:03:16;3.22;;;2.03;;
9208;SDS011;4639;48.862;9.188;2022-08-21T13:05:42;5.78;;;3.08;;
9208;SDS011;4639;48.862;9.188;2022-08-21T13:08:09;6.63;;;3.03;;
9208;SDS011;4639;48.862;9.188;2022-08-21T13:10:37;5.47;;;2.70;;
9208;SDS011;4639;48.862;9.188;2022-08-21T13:13:09;3.33;;;2.50;;
9208;SDS011;4639;48.862;9.188;2022-08-21T13:15:45;4.53;;;2.75;;
9208;SDS011;4639;48.862;9.188;2022-08-21T13:18:19;5.75;;;2.60;;
9208;SDS011;4639;48.862;9.188;2022-08-21T13:20:50;4.50;;;2.45;;
9208;SDS011;4639;48.862;9.188;2022-08-21T13:25:52;6.00;;;2.58;;
9208;SDS011;4639;48.862;9.188;2022-08-21T13:28:18;4.80;;;2.85;;
9208;SDS011;4639;48.862;9.188;2022-08-21T13:30:45;4.80;;;2.45;;
9208;SDS011;4639;48.862;9.188;2022-08-21T13:33:19;8.00;;;2.70;;
9208;SDS011;4639;48.862;9.188;2022-08-21T13:36:32;4.28;;;2.35;;
9208;SDS011;4639;48.862;9.188;2022-08-21T13:38:45;4.10;;;2.58;;
9208;SDS011;4639;48.862;9.188;2022-08-21T13:41:21;5.32;;;2.50;;
9208;SDS011;4639;48.862;9.188;2022-08-21T13:43:57;6.60;;;2.78;;
9208;SDS011;4639;48.862;9.188;2022-08-21T13:46:32;6.07;;;2.88;;
9208;SDS011;4639;48.862;9.188;2022-08-21T13:49:00;4.70;;;2.63;;
9208;SDS011;4639;48.862;9.188;2022-08-21T13:51:29;4.75;;;2.55;;
9208;SDS011;4639;48.862;9.188;2022-08-21T13:53:56;5.95;;;2.83;;
9208;SDS011;4639;48.862;9.188;2022-08-21T13:56:43;6.95;;;2.70;;
9208;SDS011;4639;48.862;9.188;2022-08-21T13:59:10;4.93;;;2.38;;
9208;SDS011;4639;48.862;9.188;2022-08-21T14:01:37;6.10;;;2.70;;
9208;SDS011;4639;48.862;9.188;2022-08-21T14:04:16;4.03;;;2.47;;
9208;SDS011;4639;48.862;9.188;2022-08-21T14:06:47;7.43;;;2.80;;
9208;SDS011;4639;48.862;9.188;2022-08-21T14:09:23;8.50;;;2.83;;
9208;SDS011;4639;48.862;9.188;2022-08-21T14:11:59;4.32;;;2.55;;
9208;SDS011;4639;48.862;9.188;2022-08-21T14:14:32;8.15;;;2.70;;
9208;SDS011;4639;48.862;9.188;2022-08-21T14:17:07;3.50;;;2.38;;
9208;SDS011;4639;48.862;9.188;2022-08-21T14:19:41;5.10;;;2.50;;
9208;SDS011;4639;48.862;9.188;2022-08-21T14:24:50;3.13;;;2.50;;
9208;SDS011;4639;48.862;9.188;2022-08-21T14:27:25;5.15;;;2.60;;
9208;SDS011;4639;48.862;9.188;2022-08-21T14:29:56;9.77;;;2.72;;
9208;SDS011;4639;48.862;9.188;2022-08-21T14:32:25;5.30;;;2.60;;
9208;SDS011;4639;48.862;9.188;2022-08-21T14:34:55;4.63;;;2.53;;
9208;SDS011;4639;48.862;9.188;2022-08-21T14:37:22;3.92;;;2.25;;
9208;SDS011;4639;48.862;9.188;2022-08-21T14:39:48;3.25;;;2.30;;
9208;SDS011;4639;48.862;9.188;2022-08-21T14:42:13;5.30;;;2.75;;
9208;SDS011;4639;48.862;9.188;2022-08-21T14:44:39;4.97;;;2.70;;
9208;SDS011;4639;48.862;9.188;2022-08-21T14:47:05;3.58;;;2.33;;
9208;SDS011;4639;48.862;9.188;2022-08-21T14:49:30;4.78;;;2.65;;
9208;SDS011;4639;48.862;9.188;2022-08-21T14:51:57;2.97;;;2.35;;
9208;SDS011;4639;48.862;9.188;2022-08-21T14:54:23;4.90;;;2.70;;
9208;SDS011;4639;48.862;9.188;2022-08-21T14:56:50;5.10;;;2.60;;
9208;SDS011;4639;48.862;9.188;2022-08-21T14:59:16;6.28;;;3.20;;
9208;SDS011;4639;48.862;9.188;2022-08-21T15:01:42;3.95;;;2.72;;
9208;SDS011;4639;48.862;9.188;2022-08-21T15:04:08;5.57;;;2.42;;
9208;SDS011;4639;48.862;9.188;2022-08-21T15:06:34;3.35;;;2.20;;
9208;SDS011;4639;48.862;9.188;2022-08-21T15:09:00;5.25;;;2.35;;
9208;SDS011;4639;48.862;9.188;2022-08-21T15:11:28;4.05;;;2.30;;
9208;SDS011;4639;48.862;9.188;2022-08-21T15:13:55;6.40;;;2.40;;
9208;SDS011;4639;48.862;9.188;2022-08-21T15:16:22;4.18;;;2.63;;
9208;SDS011;4639;48.862;9.188;2022-08-21T15:18:48;5.43;;;2.63;;
9208;SDS011;4639;48.862;9.188;2022-08-21T15:21:14;4.50;;;2.60;;
9208;SDS011;4639;48.862;9.188;2022-08-21T15:23:40;3.58;;;2.38;;
9208;SDS011;4639;48.862;9.188;2022-08-21T15:26:05;5.75;;;2.35;;
9208;SDS011;4639;48.862;9.188;2022-08-21T15:28:31;4.45;;;2.55;;
9208;SDS011;4639;48.862;9.188;2022-08-21T15:30:59;4.22;;;2.10;;
9208;SDS011;4639;48.862;9.188;2022-08-21T15:33:25;3.60;;;2.17;;
9208;SDS011;4639;48.862;9.188;2022-08-21T15:35:51;3.15;;;2.15;;
9208;SDS011;4639;48.862;9.188;2022-08-21T15:38:17;5.05;;;2.28;;
9208;SDS011;4639;48.862;9.188;2022-08-21T15:40:43;3.53;;;2.05;;
9208;SDS011;4639;48.862;9.188;2022-08-21T15:43:11;4.35;;;2.45;;
9208;SDS011;4639;48.862;9.188;2022-08-21T15:46:05;5.45;;;2.53;;
9208;SDS011;4639;48.862;9.188;2022-08-21T15:48:31;4.13;;;2.30;;
9208;SDS011;4639;48.862;9.188;2022-08-21T15:50:56;3.42;;;2.38;;
9208;SDS011;4639;48.862;9.188;2022-08-21T15:53:22;5.25;;;2.67;;
9208;SDS011;4639;48.862;9.188;2022-08-21T15:55:48;3.45;;;2.60;;
9208;SDS011;4639;48.862;9.188;2022-08-21T15:58:14;5.05;;;2.42;;
9208;SDS011;4639;48.862;9.188;2022-08-21T16:00:41;4.97;;;2.65;;
9208;SDS011;4639;48.862;9.188;2022-08-21T16:03:09;4.60;;;2.40;;
9208;SDS011;4639;48.862;9.188;2022-08-21T16:05:39;3.67;;;2.40;;
9208;SDS011;4639;48.862;9.188;2022-08-21T16:08:05;4.18;;;2.40;;
9208;SDS011;4639;48.862;9.188;2022-08-21T16:10:30;3.38;;;2.40;;
9208;SDS011;4639;48.862;9.188;2022-08-21T16:13:01;5.07;;;2.60;;
9208;SDS011;4639;48.862;9.188;2022-08-21T16:15:29;3.65;;;2.55;;
9208;SDS011;4639;48.862;9.188;2022-08-21T16:17:55;5.55;;;2.90;;
9208;SDS011;4639;48.862;9.188;2022-08-21T16:20:22;4.47;;;2.70;;
9208;SDS011;4639;48.862;9.188;2022-08-21T16:22:50;4.40;;;2.60;;
9208;SDS011;4639;48.862;9.188;2022-08-21T16:25:17;4.00;;;2.60;;
9208;SDS011;4639;48.862;9.188;2022-08-21T16:27:45;5.13;;;2.60;;
9208;SDS011;4639;48.862;9.188;2022-08-21T16:30:15;3.15;;;2.20;;
9208;SDS011;4639;48.862;9.188;2022-08-21T16:32:42;3.63;;;2.50;;